sensor_id;sensor_type;location;lat;lon;timestamp;P1;durP1;ratioP1;P2;durP2;ratioP2
63902;SDS011;50072;50.678;13.938;2024-02-23T00:00:35;1.63;;;0.70;;
63902;SDS011;50072;50.678;13.938;2024-02-23T00:03:20;1.63;;;0.80;;
63902;SDS011;50072;50.678;13.938;2024-02-23T00:05:46;1.65;;;1.00;;
63902;SDS011;50072;50.678;13.938;2024-02-23T00:08:13;2.40;;;1.20;;
63902;SDS011;50072;50.678;13.938;2024-02-23T00:10:39;19.02;;;5.40;;
63902;SDS011;50072;50.678;13.938;2024-02-23T00:13:06;13.55;;;4.30;;
63902;SDS011;50072;50.678;13.938;2024-02-23T00:15:31;14.95;;;4.65;;
63902;SDS011;50072;50.678;13.938;2024-02-23T00:17:59;18.80;;;5.85;;
63902;SDS011;50072;50.678;13.938;2024-02-23T00:20:24;11.70;;;3.40;;
63902;SDS011;50072;50.678;13.938;2024-02-23T00:22:58;6.63;;;2.22;;
63902;SDS011;50072;50.678;13.938;2024-02-23T00:25:24;8.63;;;3.13;;
63902;SDS011;50072;50.678;13.938;2024-02-23T00:27:50;6.85;;;2.08;;
63902;SDS011;50072;50.678;13.938;2024-02-23T00:30:17;17.33;;;5.85;;
63902;SDS011;50072;50.678;13.938;2024-02-23T00:32:43;8.95;;;3.08;;
63902;SDS011;50072;50.678;13.938;2024-02-23T00:35:09;19.10;;;5.85;;
63902;SDS011;50072;50.678;13.938;2024-02-23T00:37:35;8.77;;;3.23;;
63902;SDS011;50072;50.678;13.938;2024-02-23T00:40:01;10.27;;;3.28;;
63902;SDS011;50072;50.678;13.938;2024-02-23T00:42:30;5.45;;;2.00;;
63902;SDS011;50072;50.678;13.938;2024-02-23T00:44:58;16.50;;;6.00;;
63902;SDS011;50072;50.678;13.938;2024-02-23T00:47:32;32.92;;;9.77;;
63902;SDS011;50072;50.678;13.938;2024-02-23T00:50:03;16.20;;;5.10;;
63902;SDS011;50072;50.678;13.938;2024-02-23T00:52:34;12.63;;;3.95;;
63902;SDS011;50072;50.678;13.938;2024-02-23T00:55:05;8.52;;;2.17;;
63902;SDS011;50072;50.678;13.938;2024-02-23T00:57:37;5.07;;;1.95;;
63902;SDS011;50072;50.678;13.938;2024-02-23T01:00:11;5.97;;;2.13;;
63902;SDS011;50072;50.678;13.938;2024-02-23T01:02:43;12.40;;;4.38;;
63902;SDS011;50072;50.678;13.938;2024-02-23T01:05:10;27.83;;;8.88;;
63902;SDS011;50072;50.678;13.938;2024-02-23T01:07:36;19.30;;;5.95;;
63902;SDS011;50072;50.678;13.938;2024-02-23T01:10:03;8.25;;;2.83;;
63902;SDS011;50072;50.678;13.938;2024-02-23T01:12:30;4.85;;;2.35;;
63902;SDS011;50072;50.678;13.938;2024-02-23T01:14:55;4.45;;;2.20;;
63902;SDS011;50072;50.678;13.938;2024-02-23T01:17:23;5.68;;;1.90;;
63902;SDS011;50072;50.678;13.938;2024-02-23T01:19:54;6.10;;;2.33;;
63902;SDS011;50072;50.678;13.938;2024-02-23T01:22:20;5.70;;;2.07;;
63902;SDS011;50072;50.678;13.938;2024-02-23T01:24:47;7.13;;;2.58;;
63902;SDS011;50072;50.678;13.938;2024-02-23T01:27:12;24.23;;;8.73;;
63902;SDS011;50072;50.678;13.938;2024-02-23T01:29:38;22.98;;;8.88;;
63902;SDS011;50072;50.678;13.938;2024-02-23T01:32:07;21.17;;;7.80;;
63902;SDS011;50072;50.678;13.938;2024-02-23T01:34:33;17.90;;;7.15;;
63902;SDS011;50072;50.678;13.938;2024-02-23T01:37:01;17.50;;;6.38;;
63902;SDS011;50072;50.678;13.938;2024-02-23T01:39:34;15.25;;;5.95;;
63902;SDS011;50072;50.678;13.938;2024-02-23T01:42:05;13.35;;;4.70;;
63902;SDS011;50072;50.678;13.938;2024-02-23T01:44:34;7.22;;;3.05;;
63902;SDS011;50072;50.678;13.938;2024-02-23T01:47:05;7.18;;;2.75;;
63902;SDS011;50072;50.678;13.938;2024-02-23T01:49:34;11.60;;;4.73;;
63902;SDS011;50072;50.678;13.938;2024-02-23T01:52:03;7.40;;;2.85;;
63902;SDS011;50072;50.678;13.938;2024-02-23T01:54:32;8.95;;;3.80;;
63902;SDS011;50072;50.678;13.938;2024-02-23T01:56:59;6.47;;;2.75;;
63902;SDS011;50072;50.678;13.938;2024-02-23T01:59:28;5.82;;;2.05;;
63902;SDS011;50072;50.678;13.938;2024-02-23T02:02:02;12.15;;;4.60;;
63902;SDS011;50072;50.678;13.938;2024-02-23T02:04:29;7.22;;;3.47;;
63902;SDS011;50072;50.678;13.938;2024-02-23T02:07:03;9.98;;;3.10;;
63902;SDS011;50072;50.678;13.938;2024-02-23T02:09:35;7.25;;;2.65;;
63902;SDS011;50072;50.678;13.938;2024-02-23T02:12:04;6.82;;;1.77;;
63902;SDS011;50072;50.678;13.938;2024-02-23T02:14:35;3.25;;;1.45;;
63902;SDS011;50072;50.678;13.938;2024-02-23T02:17:07;9.43;;;3.20;;
63902;SDS011;50072;50.678;13.938;2024-02-23T02:19:33;2.83;;;1.38;;
63902;SDS011;50072;50.678;13.938;2024-02-23T02:21:59;2.65;;;0.70;;
63902;SDS011;50072;50.678;13.938;2024-02-23T02:24:25;4.15;;;1.60;;
63902;SDS011;50072;50.678;13.938;2024-02-23T02:26:51;5.70;;;2.20;;
63902;SDS011;50072;50.678;13.938;2024-02-23T02:29:18;5.95;;;1.98;;
63902;SDS011;50072;50.678;13.938;2024-02-23T02:31:46;5.18;;;2.05;;
63902;SDS011;50072;50.678;13.938;2024-02-23T02:34:12;4.75;;;1.85;;
63902;SDS011;50072;50.678;13.938;2024-02-23T02:36:41;4.20;;;1.20;;
63902;SDS011;50072;50.678;13.938;2024-02-23T02:39:09;16.70;;;2.88;;
63902;SDS011;50072;50.678;13.938;2024-02-23T02:41:37;4.65;;;1.50;;
63902;SDS011;50072;50.678;13.938;2024-02-23T02:44:03;8.18;;;3.20;;
63902;SDS011;50072;50.678;13.938;2024-02-23T02:46:29;10.63;;;3.78;;
63902;SDS011;50072;50.678;13.938;2024-02-23T02:53:59;2.47;;;1.00;;
63902;SDS011;50072;50.678;13.938;2024-02-23T02:56:25;1.80;;;0.75;;
63902;SDS011;50072;50.678;13.938;2024-02-23T02:58:51;1.60;;;0.50;;
63902;SDS011;50072;50.678;13.938;2024-02-23T03:01:22;3.08;;;0.70;;
63902;SDS011;50072;50.678;13.938;2024-02-23T03:03:48;1.60;;;0.80;;
63902;SDS011;50072;50.678;13.938;2024-02-23T03:06:14;4.57;;;2.15;;
63902;SDS011;50072;50.678;13.938;2024-02-23T03:08:46;5.70;;;1.20;;
63902;SDS011;50072;50.678;13.938;2024-02-23T03:11:13;5.15;;;1.60;;
63902;SDS011;50072;50.678;13.938;2024-02-23T03:13:44;3.08;;;0.80;;
63902;SDS011;50072;50.678;13.938;2024-02-23T03:16:28;2.30;;;0.77;;
63902;SDS011;50072;50.678;13.938;2024-02-23T03:21:33;1.70;;;0.73;;
63902;SDS011;50072;50.678;13.938;2024-02-23T03:24:08;1.75;;;0.70;;
63902;SDS011;50072;50.678;13.938;2024-02-23T03:26:43;1.17;;;0.60;;
63902;SDS011;50072;50.678;13.938;2024-02-23T03:29:13;1.90;;;0.75;;
63902;SDS011;50072;50.678;13.938;2024-02-23T03:31:42;4.22;;;0.90;;
63902;SDS011;50072;50.678;13.938;2024-02-23T03:36:38;3.05;;;0.73;;
63902;SDS011;50072;50.678;13.938;2024-02-23T03:39:04;2.45;;;0.70;;
63902;SDS011;50072;50.678;13.938;2024-02-23T03:41:32;1.50;;;0.43;;
63902;SDS011;50072;50.678;13.938;2024-02-23T03:46:35;3.55;;;0.70;;
63902;SDS011;50072;50.678;13.938;2024-02-23T03:49:07;1.20;;;0.68;;
63902;SDS011;50072;50.678;13.938;2024-02-23T03:51:34;1.65;;;0.60;;
63902;SDS011;50072;50.678;13.938;2024-02-23T03:54:04;4.45;;;1.48;;
63902;SDS011;50072;50.678;13.938;2024-02-23T03:56:40;2.85;;;1.27;;
63902;SDS011;50072;50.678;13.938;2024-02-23T03:59:09;3.58;;;1.00;;
63902;SDS011;50072;50.678;13.938;2024-02-23T04:04:09;2.60;;;1.08;;
63902;SDS011;50072;50.678;13.938;2024-02-23T04:11:43;3.85;;;1.40;;
63902;SDS011;50072;50.678;13.938;2024-02-23T04:14:08;2.08;;;0.68;;
63902;SDS011;50072;50.678;13.938;2024-02-23T04:16:34;4.40;;;1.80;;
63902;SDS011;50072;50.678;13.938;2024-02-23T04:19:14;3.67;;;1.60;;
63902;SDS011;50072;50.678;13.938;2024-02-23T04:21:40;1.75;;;0.93;;
63902;SDS011;50072;50.678;13.938;2024-02-23T04:24:13;4.47;;;1.52;;
63902;SDS011;50072;50.678;13.938;2024-02-23T04:26:41;2.88;;;1.25;;
63902;SDS011;50072;50.678;13.938;2024-02-23T04:29:10;7.82;;;2.97;;
63902;SDS011;50072;50.678;13.938;2024-02-23T04:31:37;2.80;;;1.25;;
63902;SDS011;50072;50.678;13.938;2024-02-23T04:34:10;7.32;;;2.95;;
63902;SDS011;50072;50.678;13.938;2024-02-23T04:36:42;4.38;;;1.30;;
63902;SDS011;50072;50.678;13.938;2024-02-23T04:39:08;3.10;;;1.40;;
63902;SDS011;50072;50.678;13.938;2024-02-23T04:41:43;4.28;;;1.00;;
63902;SDS011;50072;50.678;13.938;2024-02-23T04:44:11;2.13;;;0.82;;
63902;SDS011;50072;50.678;13.938;2024-02-23T04:46:39;2.60;;;0.80;;
63902;SDS011;50072;50.678;13.938;2024-02-23T04:49:13;1.02;;;0.70;;
63902;SDS011;50072;50.678;13.938;2024-02-23T04:51:41;1.85;;;0.80;;
63902;SDS011;50072;50.678;13.938;2024-02-23T04:54:13;1.88;;;0.60;;
63902;SDS011;50072;50.678;13.938;2024-02-23T04:56:39;2.60;;;1.10;;
63902;SDS011;50072;50.678;13.938;2024-02-23T04:59:04;0.90;;;0.50;;
63902;SDS011;50072;50.678;13.938;2024-02-23T05:01:34;1.25;;;0.63;;
63902;SDS011;50072;50.678;13.938;2024-02-23T05:04:01;0.90;;;0.45;;
63902;SDS011;50072;50.678;13.938;2024-02-23T05:06:28;0.82;;;0.43;;
63902;SDS011;50072;50.678;13.938;2024-02-23T05:08:55;2.08;;;0.90;;
63902;SDS011;50072;50.678;13.938;2024-02-23T05:11:21;1.23;;;0.70;;
63902;SDS011;50072;50.678;13.938;2024-02-23T05:13:47;2.50;;;0.77;;
63902;SDS011;50072;50.678;13.938;2024-02-23T05:16:14;1.75;;;0.80;;
63902;SDS011;50072;50.678;13.938;2024-02-23T05:18:40;1.55;;;0.70;;
63902;SDS011;50072;50.678;13.938;2024-02-23T05:21:08;0.95;;;0.50;;
63902;SDS011;50072;50.678;13.938;2024-02-23T05:23:35;3.85;;;0.57;;
63902;SDS011;50072;50.678;13.938;2024-02-23T05:26:01;1.30;;;0.70;;
63902;SDS011;50072;50.678;13.938;2024-02-23T05:28:27;1.67;;;0.70;;
63902;SDS011;50072;50.678;13.938;2024-02-23T05:30:56;2.33;;;0.63;;
63902;SDS011;50072;50.678;13.938;2024-02-23T05:33:22;1.70;;;0.60;;
63902;SDS011;50072;50.678;13.938;2024-02-23T05:35:48;3.08;;;0.80;;
63902;SDS011;50072;50.678;13.938;2024-02-23T05:38:14;1.55;;;0.57;;
63902;SDS011;50072;50.678;13.938;2024-02-23T05:40:41;1.80;;;0.63;;
63902;SDS011;50072;50.678;13.938;2024-02-23T05:43:06;3.30;;;0.80;;
63902;SDS011;50072;50.678;13.938;2024-02-23T05:45:33;1.40;;;0.70;;
63902;SDS011;50072;50.678;13.938;2024-02-23T05:47:59;1.95;;;0.60;;
63902;SDS011;50072;50.678;13.938;2024-02-23T05:50:27;3.15;;;0.75;;
63902;SDS011;50072;50.678;13.938;2024-02-23T05:52:54;4.38;;;1.50;;
63902;SDS011;50072;50.678;13.938;2024-02-23T05:55:20;5.13;;;1.45;;
63902;SDS011;50072;50.678;13.938;2024-02-23T05:57:47;1.52;;;0.75;;
63902;SDS011;50072;50.678;13.938;2024-02-23T06:00:19;5.05;;;1.23;;
63902;SDS011;50072;50.678;13.938;2024-02-23T06:02:55;3.40;;;2.05;;
63902;SDS011;50072;50.678;13.938;2024-02-23T06:05:21;4.25;;;1.83;;
63902;SDS011;50072;50.678;13.938;2024-02-23T06:07:49;2.15;;;1.20;;
63902;SDS011;50072;50.678;13.938;2024-02-23T06:10:20;9.32;;;3.60;;
63902;SDS011;50072;50.678;13.938;2024-02-23T06:12:48;11.88;;;3.50;;
63902;SDS011;50072;50.678;13.938;2024-02-23T06:20:44;1.42;;;0.65;;
63902;SDS011;50072;50.678;13.938;2024-02-23T06:23:11;1.20;;;0.50;;
63902;SDS011;50072;50.678;13.938;2024-02-23T06:25:43;1.85;;;0.88;;
63902;SDS011;50072;50.678;13.938;2024-02-23T06:28:12;3.17;;;0.90;;
63902;SDS011;50072;50.678;13.938;2024-02-23T06:33:14;2.15;;;1.10;;
63902;SDS011;50072;50.678;13.938;2024-02-23T06:35:40;6.00;;;1.25;;
63902;SDS011;50072;50.678;13.938;2024-02-23T06:38:07;3.63;;;1.40;;
63902;SDS011;50072;50.678;13.938;2024-02-23T06:40:43;2.17;;;1.20;;
63902;SDS011;50072;50.678;13.938;2024-02-23T06:43:14;4.07;;;1.23;;
63902;SDS011;50072;50.678;13.938;2024-02-23T06:45:43;3.13;;;0.80;;
63902;SDS011;50072;50.678;13.938;2024-02-23T06:53:08;1.75;;;0.80;;
63902;SDS011;50072;50.678;13.938;2024-02-23T06:55:34;3.13;;;0.57;;
63902;SDS011;50072;50.678;13.938;2024-02-23T06:58:01;1.58;;;0.70;;
63902;SDS011;50072;50.678;13.938;2024-02-23T07:00:32;2.75;;;0.60;;
63902;SDS011;50072;50.678;13.938;2024-02-23T07:02:59;2.08;;;0.50;;
63902;SDS011;50072;50.678;13.938;2024-02-23T07:05:28;2.28;;;0.50;;
63902;SDS011;50072;50.678;13.938;2024-02-23T07:07:55;1.95;;;0.77;;
63902;SDS011;50072;50.678;13.938;2024-02-23T07:10:21;4.65;;;0.75;;
63902;SDS011;50072;50.678;13.938;2024-02-23T07:12:48;6.60;;;2.05;;
63902;SDS011;50072;50.678;13.938;2024-02-23T07:15:15;6.30;;;1.50;;
63902;SDS011;50072;50.678;13.938;2024-02-23T07:17:40;4.55;;;1.75;;
63902;SDS011;50072;50.678;13.938;2024-02-23T07:20:07;4.22;;;1.88;;
63902;SDS011;50072;50.678;13.938;2024-02-23T07:22:34;5.25;;;2.33;;
63902;SDS011;50072;50.678;13.938;2024-02-23T07:25:00;4.65;;;1.10;;
63902;SDS011;50072;50.678;13.938;2024-02-23T07:27:29;2.60;;;0.77;;
63902;SDS011;50072;50.678;13.938;2024-02-23T07:29:58;2.85;;;0.80;;
63902;SDS011;50072;50.678;13.938;2024-02-23T07:32:24;6.78;;;1.50;;
63902;SDS011;50072;50.678;13.938;2024-02-23T07:34:52;2.85;;;1.10;;
63902;SDS011;50072;50.678;13.938;2024-02-23T07:37:19;7.05;;;1.38;;
63902;SDS011;50072;50.678;13.938;2024-02-23T07:39:45;4.53;;;1.60;;
63902;SDS011;50072;50.678;13.938;2024-02-23T07:42:11;3.85;;;1.10;;
63902;SDS011;50072;50.678;13.938;2024-02-23T07:44:41;1.73;;;0.63;;
63902;SDS011;50072;50.678;13.938;2024-02-23T07:47:07;4.70;;;1.20;;
63902;SDS011;50072;50.678;13.938;2024-02-23T07:49:33;2.63;;;1.00;;
63902;SDS011;50072;50.678;13.938;2024-02-23T07:52:00;3.95;;;1.63;;
63902;SDS011;50072;50.678;13.938;2024-02-23T07:54:27;3.50;;;1.50;;
63902;SDS011;50072;50.678;13.938;2024-02-23T07:56:53;2.72;;;1.23;;
63902;SDS011;50072;50.678;13.938;2024-02-23T07:59:20;3.30;;;0.90;;
63902;SDS011;50072;50.678;13.938;2024-02-23T08:01:46;3.95;;;1.15;;
63902;SDS011;50072;50.678;13.938;2024-02-23T08:04:14;2.63;;;0.90;;
63902;SDS011;50072;50.678;13.938;2024-02-23T08:06:40;3.15;;;1.50;;
63902;SDS011;50072;50.678;13.938;2024-02-23T08:09:08;5.35;;;1.10;;
63902;SDS011;50072;50.678;13.938;2024-02-23T08:11:34;3.78;;;0.70;;
63902;SDS011;50072;50.678;13.938;2024-02-23T08:14:01;2.83;;;1.10;;
63902;SDS011;50072;50.678;13.938;2024-02-23T08:16:28;6.38;;;1.48;;
63902;SDS011;50072;50.678;13.938;2024-02-23T08:18:55;3.78;;;1.60;;
63902;SDS011;50072;50.678;13.938;2024-02-23T08:21:21;6.35;;;1.20;;
63902;SDS011;50072;50.678;13.938;2024-02-23T08:23:46;3.80;;;1.40;;
63902;SDS011;50072;50.678;13.938;2024-02-23T08:26:13;3.95;;;1.00;;
63902;SDS011;50072;50.678;13.938;2024-02-23T08:28:39;4.35;;;1.25;;
63902;SDS011;50072;50.678;13.938;2024-02-23T08:31:05;5.65;;;1.45;;
63902;SDS011;50072;50.678;13.938;2024-02-23T08:33:31;3.65;;;1.00;;
63902;SDS011;50072;50.678;13.938;2024-02-23T08:35:57;3.40;;;1.05;;
63902;SDS011;50072;50.678;13.938;2024-02-23T08:38:23;2.22;;;0.95;;
63902;SDS011;50072;50.678;13.938;2024-02-23T08:40:49;2.53;;;1.15;;
63902;SDS011;50072;50.678;13.938;2024-02-23T08:43:16;2.63;;;1.15;;
63902;SDS011;50072;50.678;13.938;2024-02-23T08:45:42;3.08;;;0.70;;
63902;SDS011;50072;50.678;13.938;2024-02-23T08:48:08;3.55;;;0.90;;
63902;SDS011;50072;50.678;13.938;2024-02-23T08:50:34;3.83;;;1.42;;
63902;SDS011;50072;50.678;13.938;2024-02-23T08:53:00;4.10;;;0.80;;
63902;SDS011;50072;50.678;13.938;2024-02-23T08:55:26;2.50;;;0.75;;
63902;SDS011;50072;50.678;13.938;2024-02-23T08:57:53;2.47;;;1.00;;
63902;SDS011;50072;50.678;13.938;2024-02-23T09:00:19;4.55;;;0.93;;
63902;SDS011;50072;50.678;13.938;2024-02-23T09:02:47;3.60;;;0.90;;
63902;SDS011;50072;50.678;13.938;2024-02-23T09:05:15;1.63;;;0.70;;
63902;SDS011;50072;50.678;13.938;2024-02-23T09:07:42;2.50;;;0.65;;
63902;SDS011;50072;50.678;13.938;2024-02-23T09:10:08;4.40;;;0.70;;
63902;SDS011;50072;50.678;13.938;2024-02-23T09:12:35;3.10;;;0.73;;
63902;SDS011;50072;50.678;13.938;2024-02-23T09:15:03;2.03;;;0.65;;
63902;SDS011;50072;50.678;13.938;2024-02-23T09:17:30;5.28;;;1.00;;
63902;SDS011;50072;50.678;13.938;2024-02-23T09:19:56;1.80;;;0.68;;
63902;SDS011;50072;50.678;13.938;2024-02-23T09:22:23;2.97;;;0.90;;
63902;SDS011;50072;50.678;13.938;2024-02-23T09:24:49;3.42;;;0.95;;
63902;SDS011;50072;50.678;13.938;2024-02-23T09:27:16;5.85;;;1.23;;
63902;SDS011;50072;50.678;13.938;2024-02-23T09:29:41;4.57;;;1.20;;
63902;SDS011;50072;50.678;13.938;2024-02-23T09:32:09;1.92;;;0.90;;
63902;SDS011;50072;50.678;13.938;2024-02-23T09:34:35;7.57;;;0.95;;
63902;SDS011;50072;50.678;13.938;2024-02-23T09:37:02;2.38;;;0.73;;
63902;SDS011;50072;50.678;13.938;2024-02-23T09:39:28;2.42;;;0.90;;
63902;SDS011;50072;50.678;13.938;2024-02-23T09:41:58;1.27;;;0.70;;
63902;SDS011;50072;50.678;13.938;2024-02-23T09:44:23;3.58;;;0.80;;
63902;SDS011;50072;50.678;13.938;2024-02-23T09:46:59;3.00;;;1.23;;
63902;SDS011;50072;50.678;13.938;2024-02-23T09:49:27;2.42;;;1.02;;
63902;SDS011;50072;50.678;13.938;2024-02-23T09:51:54;2.42;;;0.88;;
63902;SDS011;50072;50.678;13.938;2024-02-23T09:54:20;3.20;;;1.00;;
63902;SDS011;50072;50.678;13.938;2024-02-23T09:56:47;8.10;;;2.22;;
63902;SDS011;50072;50.678;13.938;2024-02-23T09:59:15;5.32;;;1.10;;
63902;SDS011;50072;50.678;13.938;2024-02-23T10:01:41;5.35;;;1.90;;
63902;SDS011;50072;50.678;13.938;2024-02-23T10:04:08;3.22;;;0.90;;
63902;SDS011;50072;50.678;13.938;2024-02-23T10:06:36;2.13;;;0.68;;
63902;SDS011;50072;50.678;13.938;2024-02-23T10:09:02;2.20;;;0.90;;
63902;SDS011;50072;50.678;13.938;2024-02-23T10:11:29;2.67;;;0.80;;
63902;SDS011;50072;50.678;13.938;2024-02-23T10:13:55;6.53;;;0.95;;
63902;SDS011;50072;50.678;13.938;2024-02-23T10:16:22;10.40;;;3.10;;
63902;SDS011;50072;50.678;13.938;2024-02-23T10:18:49;2.17;;;0.80;;
63902;SDS011;50072;50.678;13.938;2024-02-23T10:21:16;2.05;;;0.75;;
63902;SDS011;50072;50.678;13.938;2024-02-23T10:23:44;1.45;;;0.68;;
63902;SDS011;50072;50.678;13.938;2024-02-23T10:26:11;1.35;;;0.60;;
63902;SDS011;50072;50.678;13.938;2024-02-23T10:28:38;3.25;;;0.80;;
63902;SDS011;50072;50.678;13.938;2024-02-23T10:31:06;2.92;;;0.70;;
63902;SDS011;50072;50.678;13.938;2024-02-23T10:33:32;2.92;;;0.90;;
63902;SDS011;50072;50.678;13.938;2024-02-23T10:35:58;1.80;;;0.70;;
63902;SDS011;50072;50.678;13.938;2024-02-23T10:38:26;2.88;;;1.08;;
63902;SDS011;50072;50.678;13.938;2024-02-23T10:40:55;1.95;;;0.65;;
63902;SDS011;50072;50.678;13.938;2024-02-23T10:43:24;2.25;;;0.68;;
63902;SDS011;50072;50.678;13.938;2024-02-23T10:46:08;8.02;;;2.92;;
63902;SDS011;50072;50.678;13.938;2024-02-23T10:48:41;6.22;;;2.20;;
63902;SDS011;50072;50.678;13.938;2024-02-23T10:51:08;5.60;;;1.13;;
63902;SDS011;50072;50.678;13.938;2024-02-23T10:53:36;1.65;;;0.68;;
63902;SDS011;50072;50.678;13.938;2024-02-23T10:56:06;2.58;;;0.70;;
63902;SDS011;50072;50.678;13.938;2024-02-23T10:58:33;2.95;;;1.10;;
63902;SDS011;50072;50.678;13.938;2024-02-23T11:01:00;1.75;;;0.60;;
63902;SDS011;50072;50.678;13.938;2024-02-23T11:03:30;2.50;;;0.80;;
63902;SDS011;50072;50.678;13.938;2024-02-23T11:05:59;1.85;;;0.73;;
63902;SDS011;50072;50.678;13.938;2024-02-23T11:08:28;6.28;;;2.28;;
63902;SDS011;50072;50.678;13.938;2024-02-23T11:10:56;8.25;;;1.30;;
63902;SDS011;50072;50.678;13.938;2024-02-23T11:13:33;4.93;;;1.48;;
63902;SDS011;50072;50.678;13.938;2024-02-23T11:16:01;1.35;;;0.60;;
63902;SDS011;50072;50.678;13.938;2024-02-23T11:18:30;3.35;;;0.95;;
63902;SDS011;50072;50.678;13.938;2024-02-23T11:20:59;2.03;;;0.80;;
63902;SDS011;50072;50.678;13.938;2024-02-23T11:23:27;1.58;;;0.82;;
63902;SDS011;50072;50.678;13.938;2024-02-23T11:26:06;2.58;;;0.90;;
63902;SDS011;50072;50.678;13.938;2024-02-23T11:28:56;3.28;;;1.40;;
63902;SDS011;50072;50.678;13.938;2024-02-23T11:31:22;2.63;;;0.80;;
63902;SDS011;50072;50.678;13.938;2024-02-23T11:33:54;4.47;;;1.25;;
63902;SDS011;50072;50.678;13.938;2024-02-23T11:38:54;2.97;;;0.88;;
63902;SDS011;50072;50.678;13.938;2024-02-23T11:41:23;1.10;;;0.65;;
63902;SDS011;50072;50.678;13.938;2024-02-23T11:43:51;1.67;;;0.70;;
63902;SDS011;50072;50.678;13.938;2024-02-23T11:46:19;2.28;;;0.68;;
63902;SDS011;50072;50.678;13.938;2024-02-23T11:48:45;2.47;;;0.90;;
63902;SDS011;50072;50.678;13.938;2024-02-23T11:51:13;2.67;;;0.88;;
63902;SDS011;50072;50.678;13.938;2024-02-23T11:53:41;2.05;;;0.70;;
63902;SDS011;50072;50.678;13.938;2024-02-23T11:56:09;1.75;;;0.77;;
63902;SDS011;50072;50.678;13.938;2024-02-23T11:58:36;1.10;;;0.63;;
63902;SDS011;50072;50.678;13.938;2024-02-23T12:01:04;1.75;;;0.85;;
63902;SDS011;50072;50.678;13.938;2024-02-23T12:03:30;2.97;;;0.90;;
63902;SDS011;50072;50.678;13.938;2024-02-23T12:05:57;5.07;;;1.00;;
63902;SDS011;50072;50.678;13.938;2024-02-23T12:08:25;5.68;;;0.95;;
63902;SDS011;50072;50.678;13.938;2024-02-23T12:10:54;5.25;;;0.70;;
63902;SDS011;50072;50.678;13.938;2024-02-23T12:13:21;2.13;;;0.77;;
63902;SDS011;50072;50.678;13.938;2024-02-23T12:15:51;6.63;;;1.20;;
63902;SDS011;50072;50.678;13.938;2024-02-23T12:18:22;5.65;;;0.93;;
63902;SDS011;50072;50.678;13.938;2024-02-23T12:21:04;3.38;;;1.20;;
63902;SDS011;50072;50.678;13.938;2024-02-23T12:23:39;3.75;;;1.30;;
63902;SDS011;50072;50.678;13.938;2024-02-23T12:26:11;2.90;;;1.42;;
63902;SDS011;50072;50.678;13.938;2024-02-23T12:28:39;5.78;;;1.38;;
63902;SDS011;50072;50.678;13.938;2024-02-23T12:31:07;4.00;;;0.82;;
63902;SDS011;50072;50.678;13.938;2024-02-23T12:33:34;2.50;;;0.80;;
63902;SDS011;50072;50.678;13.938;2024-02-23T12:36:04;2.75;;;1.08;;
63902;SDS011;50072;50.678;13.938;2024-02-23T12:38:31;2.22;;;0.60;;
63902;SDS011;50072;50.678;13.938;2024-02-23T12:40:59;3.85;;;0.80;;
63902;SDS011;50072;50.678;13.938;2024-02-23T12:43:26;3.00;;;0.90;;
63902;SDS011;50072;50.678;13.938;2024-02-23T12:45:53;3.22;;;0.70;;
63902;SDS011;50072;50.678;13.938;2024-02-23T12:48:21;2.22;;;0.70;;
63902;SDS011;50072;50.678;13.938;2024-02-23T12:50:48;4.40;;;1.10;;
63902;SDS011;50072;50.678;13.938;2024-02-23T12:56:05;4.25;;;1.10;;
63902;SDS011;50072;50.678;13.938;2024-02-23T12:58:39;3.40;;;0.80;;
63902;SDS011;50072;50.678;13.938;2024-02-23T13:01:07;3.72;;;1.15;;
63902;SDS011;50072;50.678;13.938;2024-02-23T13:03:33;4.28;;;0.90;;
63902;SDS011;50072;50.678;13.938;2024-02-23T13:06:01;4.45;;;1.10;;
63902;SDS011;50072;50.678;13.938;2024-02-23T13:08:28;4.72;;;1.95;;
63902;SDS011;50072;50.678;13.938;2024-02-23T13:10:56;2.80;;;0.68;;
63902;SDS011;50072;50.678;13.938;2024-02-23T13:13:23;4.57;;;1.10;;
63902;SDS011;50072;50.678;13.938;2024-02-23T13:15:53;4.97;;;1.20;;
63902;SDS011;50072;50.678;13.938;2024-02-23T13:18:20;8.48;;;3.17;;
63902;SDS011;50072;50.678;13.938;2024-02-23T13:20:47;2.83;;;0.80;;
63902;SDS011;50072;50.678;13.938;2024-02-23T13:23:15;0.98;;;0.40;;
63902;SDS011;50072;50.678;13.938;2024-02-23T13:25:42;3.00;;;0.73;;
63902;SDS011;50072;50.678;13.938;2024-02-23T13:28:10;2.00;;;0.70;;
63902;SDS011;50072;50.678;13.938;2024-02-23T13:30:36;2.95;;;0.70;;
63902;SDS011;50072;50.678;13.938;2024-02-23T13:33:04;2.70;;;0.75;;
63902;SDS011;50072;50.678;13.938;2024-02-23T13:35:31;1.38;;;0.60;;
63902;SDS011;50072;50.678;13.938;2024-02-23T13:37:57;3.25;;;1.45;;
63902;SDS011;50072;50.678;13.938;2024-02-23T13:40:24;2.92;;;0.80;;
63902;SDS011;50072;50.678;13.938;2024-02-23T13:42:50;2.50;;;0.88;;
63902;SDS011;50072;50.678;13.938;2024-02-23T13:45:19;2.20;;;0.60;;
63902;SDS011;50072;50.678;13.938;2024-02-23T13:48:07;2.55;;;0.70;;
63902;SDS011;50072;50.678;13.938;2024-02-23T13:50:33;1.98;;;0.65;;
63902;SDS011;50072;50.678;13.938;2024-02-23T13:53:00;3.45;;;0.50;;
63902;SDS011;50072;50.678;13.938;2024-02-23T13:55:26;5.07;;;1.20;;
63902;SDS011;50072;50.678;13.938;2024-02-23T13:57:53;2.67;;;0.82;;
63902;SDS011;50072;50.678;13.938;2024-02-23T14:00:20;3.17;;;0.90;;
63902;SDS011;50072;50.678;13.938;2024-02-23T14:02:46;2.28;;;0.70;;
63902;SDS011;50072;50.678;13.938;2024-02-23T14:05:15;2.50;;;0.75;;
63902;SDS011;50072;50.678;13.938;2024-02-23T14:07:43;1.67;;;0.65;;
63902;SDS011;50072;50.678;13.938;2024-02-23T14:10:10;2.25;;;0.88;;
63902;SDS011;50072;50.678;13.938;2024-02-23T14:12:36;2.50;;;0.90;;
63902;SDS011;50072;50.678;13.938;2024-02-23T14:15:03;2.83;;;0.68;;
63902;SDS011;50072;50.678;13.938;2024-02-23T14:17:30;3.13;;;0.80;;
63902;SDS011;50072;50.678;13.938;2024-02-23T14:19:58;1.35;;;0.63;;
63902;SDS011;50072;50.678;13.938;2024-02-23T14:22:24;2.42;;;0.70;;
63902;SDS011;50072;50.678;13.938;2024-02-23T14:24:51;2.15;;;0.82;;
63902;SDS011;50072;50.678;13.938;2024-02-23T14:27:17;1.50;;;0.82;;
63902;SDS011;50072;50.678;13.938;2024-02-23T14:29:43;3.88;;;0.90;;
63902;SDS011;50072;50.678;13.938;2024-02-23T14:32:11;2.40;;;1.00;;
63902;SDS011;50072;50.678;13.938;2024-02-23T14:34:45;6.10;;;0.90;;
63902;SDS011;50072;50.678;13.938;2024-02-23T14:37:11;2.38;;;1.08;;
63902;SDS011;50072;50.678;13.938;2024-02-23T14:39:38;5.10;;;1.20;;
63902;SDS011;50072;50.678;13.938;2024-02-23T14:42:04;4.28;;;1.00;;
63902;SDS011;50072;50.678;13.938;2024-02-23T14:44:35;3.00;;;0.93;;
63902;SDS011;50072;50.678;13.938;2024-02-23T14:47:02;2.72;;;1.08;;
63902;SDS011;50072;50.678;13.938;2024-02-23T14:49:29;3.95;;;1.00;;
63902;SDS011;50072;50.678;13.938;2024-02-23T14:51:57;4.38;;;0.98;;
63902;SDS011;50072;50.678;13.938;2024-02-23T14:54:24;6.55;;;1.30;;
63902;SDS011;50072;50.678;13.938;2024-02-23T14:56:50;2.90;;;0.80;;
63902;SDS011;50072;50.678;13.938;2024-02-23T15:01:48;7.22;;;1.40;;
63902;SDS011;50072;50.678;13.938;2024-02-23T15:04:14;1.60;;;0.88;;
63902;SDS011;50072;50.678;13.938;2024-02-23T15:06:39;1.75;;;0.80;;
63902;SDS011;50072;50.678;13.938;2024-02-23T15:09:05;4.68;;;1.17;;
63902;SDS011;50072;50.678;13.938;2024-02-23T15:11:38;5.32;;;1.52;;
63902;SDS011;50072;50.678;13.938;2024-02-23T15:14:05;7.25;;;1.25;;
63902;SDS011;50072;50.678;13.938;2024-02-23T15:16:31;6.30;;;1.20;;
63902;SDS011;50072;50.678;13.938;2024-02-23T15:18:58;2.60;;;1.10;;